LICB/CIY METAR and TAF weather

Enter ICAO airport designator
Station Type Date Time Source
LICB METAR 2019/06/18 03:50 UTC NOAA

LICB 180350Z AUTO 07003KT 9999 FEW180/// 18/13 Q1013


Station Type Date Time Source
LICB Decoded METAR 2019/06/18 03:50 UTC NOAA

Comiso As Usaf , Italy (LICB) 36-56N 014-36E
Jun 17, 2019 - 11:50 PM EDT / 2019.06.18 0350 UTC
Wind: from the ENE (070 degrees) at 3 MPH (3 KT):0
Visibility: greater than 7 mile(s):0
Sky conditions: mostly clear
Temperature: 64 F (18 C)
Dew Point: 55 F (13 C)
Relative Humidity: 72%
Pressure (altimeter): 29.91 in. Hg (1013 hPa)
ob: LICB 180350Z AUTO 07003KT 9999 FEW180/// 18/13 Q1013
cycle: 4

Station Type Date Time Source
LICB TAF UTC NOAA

Error!

Example: see airport list